Arland, Wisconsin
Current Conditions -  °F | °C
As of 12:35 AM on Monday 24 Nov 2014 (Local Time) from KUBE Reporting Station
Moderate Rain Moderate Rain  
Wind Chill: 23°   Ceiling: 600
Heat Index: 32°   Visibility: 4mi
Dew Point: 32°   Wind: 12mph
Humidity: 100%   Direction: 320°NW
Pressure: 29.23"   Gusts: NA
Location:  45.3064°N, 92.1345°W
Report Text: KUBE 240635Z AUTO 32010KT 4SM RA OVC006 00/00 A2923 RMK AO2 P0001
Loading
Personal Weather Stations






























Interactive Weather Map New forecast layout! Learn more

10-Day Weather Forecast

Advertisements
Track Severe Weather on mobile